createdAt,value
2019-03-22T00:00:21.970Z,99.90
2019-03-22T00:02:51.423Z,99.90
2019-03-22T00:05:21.013Z,99.90
2019-03-22T00:07:50.613Z,99.90
2019-03-22T00:10:26.090Z,99.90
2019-03-22T00:12:55.646Z,99.90
2019-03-22T00:15:26.281Z,99.90
2019-03-22T00:17:55.765Z,99.90
2019-03-22T00:20:26.363Z,99.90
2019-03-22T00:22:55.789Z,99.90
2019-03-22T00:25:25.377Z,99.90
2019-03-22T00:27:54.786Z,99.90
2019-03-22T00:30:25.319Z,99.90
2019-03-22T00:32:55.934Z,99.90
2019-03-22T00:35:25.529Z,99.90
2019-03-22T00:37:54.955Z,99.90
2019-03-22T00:40:25.452Z,99.90
2019-03-22T00:42:55.033Z,99.90
2019-03-22T00:45:26.456Z,99.90
2019-03-22T00:47:56.877Z,99.90
2019-03-22T00:50:26.351Z,99.90
2019-03-22T00:53:03.008Z,99.90
2019-03-22T00:55:34.568Z,99.90
2019-03-22T00:58:05.170Z,99.90
2019-03-22T01:00:36.672Z,99.90
2019-03-22T01:03:07.206Z,99.90
2019-03-22T01:05:37.898Z,99.90
2019-03-22T01:08:07.430Z,99.90
2019-03-22T01:10:43.691Z,99.90
2019-03-22T01:13:13.803Z,99.90
2019-03-22T01:15:45.518Z,99.90
2019-03-22T01:18:15.082Z,99.90
2019-03-22T01:20:45.534Z,99.90
2019-03-22T01:23:15.056Z,99.90
2019-03-22T01:25:44.697Z,99.90
2019-03-22T01:28:14.174Z,99.90
2019-03-22T01:30:44.650Z,99.90
2019-03-22T01:33:14.163Z,99.90
2019-03-22T01:35:43.589Z,99.90
2019-03-22T01:38:13.043Z,99.90
2019-03-22T01:40:48.589Z,99.90
2019-03-22T01:43:20.237Z,99.90
2019-03-22T01:45:49.753Z,99.90
2019-03-22T01:48:20.240Z,99.90
2019-03-22T01:50:50.033Z,99.90
2019-03-22T01:53:19.619Z,99.90
2019-03-22T01:55:49.031Z,99.90
2019-03-22T01:58:20.590Z,99.90
2019-03-22T02:00:51.152Z,99.90
2019-03-22T02:03:20.717Z,99.90
2019-03-22T02:05:51.309Z,99.90
2019-03-22T02:08:21.017Z,99.90
2019-03-22T02:10:50.581Z,99.90
2019-03-22T02:13:20.936Z,99.90
2019-03-22T02:15:51.786Z,99.90
2019-03-22T02:18:21.230Z,99.90
2019-03-22T02:20:51.822Z,99.90
2019-03-22T02:23:21.323Z,99.90
2019-03-22T02:25:52.746Z,99.90
2019-03-22T02:28:23.221Z,99.90
2019-03-22T02:30:52.733Z,99.90
2019-03-22T02:33:22.166Z,99.90
2019-03-22T02:35:51.775Z,99.90
2019-03-22T02:38:21.150Z,99.90
2019-03-22T02:40:56.605Z,99.90
2019-03-22T02:43:27.041Z,99.90
2019-03-22T02:45:56.617Z,99.90
2019-03-22T02:48:26.041Z,99.90
2019-03-22T02:51:01.559Z,99.90
2019-03-22T02:53:30.998Z,99.90
2019-03-22T02:56:00.673Z,99.90
2019-03-22T02:58:30.265Z,99.90
2019-03-22T03:00:59.865Z,99.90
2019-03-22T03:03:31.357Z,99.90
2019-03-22T03:06:00.921Z,99.90
2019-03-22T03:08:30.431Z,99.90
2019-03-22T03:10:59.944Z,99.90
2019-03-22T03:13:29.463Z,99.90
2019-03-22T03:16:04.889Z,99.90
2019-03-22T03:18:34.495Z,99.90
2019-03-22T03:21:05.115Z,99.90
2019-03-22T03:23:34.647Z,99.90
2019-03-22T03:26:04.211Z,99.90
2019-03-22T03:28:37.248Z,99.90
2019-03-22T03:31:05.112Z,99.90
2019-03-22T03:33:36.674Z,99.90
2019-03-22T03:36:07.278Z,99.90
2019-03-22T03:38:36.806Z,99.90
2019-03-22T03:41:06.417Z,99.90
2019-03-22T03:43:35.990Z,99.90
2019-03-22T03:46:05.517Z,99.90
2019-03-22T03:48:37.072Z,99.90
2019-03-22T03:51:13.501Z,99.90
2019-03-22T03:53:47.025Z,99.90
2019-03-22T03:56:16.696Z,99.90
2019-03-22T03:58:52.574Z,99.90
2019-03-22T04:01:17.456Z,99.90
2019-03-22T04:03:46.991Z,99.90
2019-03-22T04:06:18.465Z,99.90
2019-03-22T04:08:47.974Z,99.90
2019-03-22T04:11:17.398Z,99.90
2019-03-22T04:13:46.981Z,99.90
2019-03-22T04:16:16.397Z,99.90
2019-03-22T04:18:45.897Z,99.90
2019-03-22T04:21:16.343Z,99.90
2019-03-22T04:23:45.914Z,99.90
2019-03-22T04:26:15.367Z,99.90
2019-03-22T04:28:44.922Z,99.90
2019-03-22T04:31:14.419Z,99.90
2019-03-22T04:33:44.845Z,99.90
2019-03-22T04:36:14.352Z,99.90
2019-03-22T04:38:43.852Z,99.90
2019-03-22T04:41:14.320Z,99.90
2019-03-22T04:43:44.799Z,99.90
2019-03-22T04:46:15.615Z,99.90
2019-03-22T04:48:46.805Z,99.90
2019-03-22T04:51:16.748Z,99.90
2019-03-22T04:53:55.089Z,99.90
2019-03-22T04:56:26.098Z,99.90
2019-03-22T04:58:58.301Z,99.90
2019-03-22T05:01:29.434Z,99.90
2019-03-22T05:04:00.048Z,99.90
2019-03-22T05:06:30.388Z,99.90
2019-03-22T05:09:01.690Z,99.90
2019-03-22T05:11:31.697Z,99.90
2019-03-22T05:14:03.245Z,99.90
2019-03-22T05:16:36.146Z,99.90
2019-03-22T05:19:08.842Z,99.90
2019-03-22T05:21:39.265Z,99.90
2019-03-22T05:24:10.078Z,99.90
2019-03-22T05:26:40.785Z,99.90
2019-03-22T05:29:12.478Z,99.90
2019-03-22T05:32:01.357Z,99.90
2019-03-22T05:34:30.893Z,99.90
2019-03-22T05:37:00.370Z,99.90
2019-03-22T05:39:29.744Z,99.90
2019-03-22T05:41:59.176Z,99.90
2019-03-22T05:44:28.625Z,99.90
2019-03-22T05:46:58.222Z,99.90
2019-03-22T05:49:27.606Z,99.90
2019-03-22T05:51:57.064Z,99.90
2019-03-22T05:54:26.463Z,99.90
2019-03-22T05:56:56.888Z,99.90
2019-03-22T05:59:26.277Z,99.90
2019-03-22T06:01:55.813Z,99.90
2019-03-22T06:04:25.277Z,99.90
2019-03-22T06:06:54.701Z,99.90
2019-03-22T06:09:24.218Z,99.90
2019-03-22T06:11:53.743Z,99.90
2019-03-22T06:14:23.285Z,99.90
2019-03-22T06:16:52.665Z,99.90
2019-03-22T06:19:47.154Z,99.90
2019-03-22T06:22:17.757Z,99.90
2019-03-22T06:24:47.183Z,99.90
2019-03-22T06:27:16.702Z,99.90
2019-03-22T06:29:54.102Z,99.90
2019-03-22T06:32:21.694Z,99.90
2019-03-22T06:34:50.476Z,99.90
2019-03-22T06:37:20.011Z,99.90
2019-03-22T06:39:49.375Z,99.90
2019-03-22T06:42:24.821Z,99.90
2019-03-22T06:44:56.593Z,99.90
2019-03-22T06:47:30.983Z,99.90
2019-03-22T06:50:14.290Z,99.90
2019-03-22T06:52:42.743Z,99.90
2019-03-22T06:55:12.377Z,99.90
2019-03-22T06:57:42.002Z,99.90
2019-03-22T07:00:11.611Z,99.90
2019-03-22T07:02:41.109Z,99.90
2019-03-22T07:05:13.425Z,99.90
2019-03-22T07:07:41.811Z,99.90
2019-03-22T07:10:12.552Z,99.90
2019-03-22T07:12:42.070Z,99.90
2019-03-22T07:15:11.709Z,99.90
2019-03-22T07:17:41.242Z,99.90
2019-03-22T07:20:10.797Z,99.90
2019-03-22T07:22:40.156Z,99.90
2019-03-22T07:25:10.641Z,99.90
2019-03-22T07:27:40.236Z,99.90
2019-03-22T07:30:18.607Z,99.90
2019-03-22T07:32:41.172Z,99.90
2019-03-22T07:35:10.714Z,99.90
2019-03-22T07:37:40.185Z,99.90
2019-03-22T07:40:09.854Z,99.90
2019-03-22T07:42:39.405Z,99.90
2019-03-22T07:45:09.096Z,99.90
2019-03-22T07:47:38.756Z,99.90
2019-03-22T07:50:08.642Z,99.90
2019-03-22T07:52:38.189Z,99.90
2019-03-22T07:55:08.633Z,99.90
2019-03-22T07:57:38.243Z,99.90
2019-03-22T08:00:08.081Z,99.90
2019-03-22T08:02:37.569Z,99.90
2019-03-22T08:05:07.198Z,99.90
2019-03-22T08:07:37.602Z,99.90
2019-03-22T08:10:08.326Z,99.90
2019-03-22T08:12:37.910Z,99.90
2019-03-22T08:15:08.566Z,99.90
2019-03-22T08:17:38.369Z,99.90
2019-03-22T08:20:08.682Z,99.90
2019-03-22T08:22:38.254Z,99.90
2019-03-22T08:25:07.747Z,99.90
2019-03-22T08:27:37.250Z,99.90
2019-03-22T08:30:06.982Z,99.90
2019-03-22T08:32:36.548Z,99.90
2019-03-22T08:35:06.166Z,99.90
2019-03-22T08:37:35.653Z,99.90
2019-03-22T08:40:05.549Z,99.90
2019-03-22T08:42:37.115Z,99.90
2019-03-22T08:45:25.529Z,99.90
2019-03-22T08:47:55.030Z,99.90
2019-03-22T08:50:24.531Z,99.90
2019-03-22T08:52:56.690Z,99.90
2019-03-22T08:55:26.191Z,99.90
2019-03-22T08:57:55.619Z,99.90
2019-03-22T09:00:38.269Z,99.90
2019-03-22T09:02:56.383Z,99.90
2019-03-22T09:05:27.050Z,99.90
2019-03-22T09:07:56.645Z,99.90
2019-03-22T09:10:26.060Z,99.90
2019-03-22T09:12:55.597Z,99.90
2019-03-22T09:15:25.181Z,99.90
2019-03-22T09:17:54.631Z,99.90
2019-03-22T09:20:24.047Z,99.90
2019-03-22T09:22:53.607Z,99.90
2019-03-22T09:25:23.082Z,99.90
2019-03-22T09:27:52.538Z,99.90
2019-03-22T09:30:22.109Z,99.90
2019-03-22T09:32:51.644Z,99.90
2019-03-22T09:35:21.156Z,99.90
2019-03-22T09:37:50.637Z,99.90
2019-03-22T09:40:20.247Z,99.90
2019-03-22T09:42:49.741Z,99.90
2019-03-22T09:45:19.195Z,99.90
2019-03-22T09:47:48.588Z,99.90
2019-03-22T09:50:18.455Z,99.90
2019-03-22T09:52:47.933Z,99.90
2019-03-22T09:55:17.594Z,99.90
2019-03-22T09:57:49.316Z,99.90
2019-03-22T10:00:37.225Z,99.90
2019-03-22T10:03:08.408Z,99.90
2019-03-22T10:05:37.857Z,99.90
2019-03-22T10:08:07.396Z,99.90
2019-03-22T10:10:36.901Z,99.90
2019-03-22T10:13:06.391Z,99.90
2019-03-22T10:15:35.882Z,99.90
2019-03-22T10:18:05.919Z,99.90
2019-03-22T10:20:35.415Z,99.90
2019-03-22T10:23:04.954Z,99.90
2019-03-22T10:25:34.401Z,99.90
2019-03-22T10:28:03.894Z,99.90
2019-03-22T10:30:33.374Z,99.90
2019-03-22T10:33:03.877Z,99.90
2019-03-22T10:35:33.269Z,99.90
2019-03-22T10:38:04.747Z,99.90
2019-03-22T10:40:33.985Z,99.90
2019-03-22T10:43:03.462Z,99.90
2019-03-22T10:45:33.050Z,99.90
2019-03-22T10:48:02.531Z,99.90
2019-03-22T10:50:31.988Z,99.90
2019-03-22T10:53:01.527Z,99.90
2019-03-22T10:55:30.997Z,99.90
2019-03-22T10:58:00.529Z,99.90
2019-03-22T11:00:30.033Z,99.90
2019-03-22T11:03:00.509Z,99.90
2019-03-22T11:05:30.046Z,99.90
2019-03-22T11:07:59.458Z,99.90
2019-03-22T11:10:29.030Z,99.90
2019-03-22T11:12:58.579Z,99.90
2019-03-22T11:15:28.125Z,99.90
2019-03-22T11:17:57.608Z,99.90
2019-03-22T11:20:27.160Z,99.90
2019-03-22T11:22:56.715Z,99.90
2019-03-22T11:25:26.182Z,99.90
2019-03-22T11:27:55.674Z,99.90
2019-03-22T11:30:25.227Z,99.90
2019-03-22T11:32:54.726Z,99.90
2019-03-22T11:35:24.164Z,99.90
2019-03-22T11:37:53.779Z,99.90
2019-03-22T11:40:23.397Z,99.90
2019-03-22T11:42:53.069Z,99.90
2019-03-22T11:45:24.630Z,99.90
2019-03-22T11:47:54.290Z,99.90
2019-03-22T11:50:23.853Z,99.90
2019-03-22T11:52:53.402Z,99.90
2019-03-22T11:55:23.037Z,99.90
2019-03-22T11:57:52.581Z,99.90
2019-03-22T12:00:22.642Z,99.90
2019-03-22T12:02:52.205Z,99.90
2019-03-22T12:05:21.968Z,99.90
2019-03-22T12:07:51.506Z,99.90
2019-03-22T12:10:22.410Z,99.90
2019-03-22T12:12:52.031Z,99.90
2019-03-22T12:15:23.243Z,99.90
2019-03-22T12:17:54.801Z,99.90
2019-03-22T12:20:26.985Z,99.20
2019-03-22T12:22:56.458Z,98.60
2019-03-22T12:25:26.358Z,98.60
2019-03-22T12:27:55.901Z,99.20
2019-03-22T12:30:25.434Z,98.10
2019-03-22T12:32:55.002Z,98.60
2019-03-22T12:35:24.506Z,98.30
2019-03-22T12:37:53.893Z,98.10
2019-03-22T12:40:24.937Z,97.90
2019-03-22T12:42:56.510Z,98.10
2019-03-22T12:45:26.053Z,98.10
2019-03-22T12:47:55.510Z,98.00
2019-03-22T12:50:25.293Z,97.90
2019-03-22T12:52:54.758Z,98.00
2019-03-22T12:55:24.353Z,98.10
2019-03-22T12:57:53.902Z,97.50
2019-03-22T13:00:23.578Z,97.50
2019-03-22T13:02:53.533Z,97.70
2019-03-22T13:05:24.504Z,97.70
2019-03-22T13:07:55.280Z,98.20
2019-03-22T13:10:25.486Z,97.60
2019-03-22T13:12:56.113Z,96.90
2019-03-22T13:15:25.656Z,97.10
2019-03-22T13:18:14.004Z,96.50
2019-03-22T13:20:44.590Z,96.30
2019-03-22T13:23:15.155Z,95.90
2019-03-22T13:25:44.650Z,95.80
2019-03-22T13:28:14.165Z,96.20
2019-03-22T13:30:43.593Z,95.30
2019-03-22T13:33:15.061Z,94.90
2019-03-22T13:35:44.634Z,95.50
2019-03-22T13:38:14.168Z,95.20
2019-03-22T13:40:43.715Z,95.80
2019-03-22T13:43:13.181Z,95.10
2019-03-22T13:45:42.645Z,94.90
2019-03-22T13:48:12.130Z,94.00
2019-03-22T13:50:41.592Z,93.80
2019-03-22T13:53:12.164Z,94.50
2019-03-22T13:55:41.715Z,93.30
2019-03-22T13:58:11.101Z,93.00
2019-03-22T14:00:40.639Z,93.10
2019-03-22T14:03:10.130Z,93.60
2019-03-22T14:05:39.540Z,93.00
2019-03-22T14:08:09.085Z,93.00
2019-03-22T14:10:38.702Z,92.70
2019-03-22T14:13:10.051Z,92.90
2019-03-22T14:15:39.465Z,92.80
2019-03-22T14:18:09.970Z,91.90
2019-03-22T14:20:39.555Z,92.40
2019-03-22T14:23:09.082Z,92.50
2019-03-22T14:25:38.566Z,91.60
2019-03-22T14:28:08.136Z,92.30
2019-03-22T14:30:37.529Z,92.30
2019-03-22T14:33:13.410Z,92.40
2019-03-22T14:35:38.212Z,92.20
2019-03-22T14:38:07.715Z,90.70
2019-03-22T14:40:37.104Z,91.00
2019-03-22T14:43:06.682Z,91.30
2019-03-22T14:45:36.165Z,90.50
2019-03-22T14:48:05.736Z,90.90
2019-03-22T14:50:35.148Z,90.80
2019-03-22T14:53:04.657Z,89.90
2019-03-22T14:55:34.058Z,88.60
2019-03-22T14:58:03.563Z,87.80
2019-03-22T15:00:33.076Z,87.70
2019-03-22T15:03:04.291Z,89.70
2019-03-22T15:05:33.782Z,90.00
2019-03-22T15:08:03.276Z,88.70
2019-03-22T15:10:32.826Z,89.40
2019-03-22T15:13:02.499Z,90.30
2019-03-22T15:15:53.251Z,90.20
2019-03-22T15:18:31.753Z,90.30
2019-03-22T15:21:23.530Z,89.30
2019-03-22T15:24:07.787Z,89.60
2019-03-22T15:27:05.422Z,90.60
2019-03-22T15:29:56.688Z,89.30
2019-03-22T15:32:52.079Z,89.80
2019-03-22T15:35:42.715Z,89.30
2019-03-22T15:38:25.606Z,89.60
2019-03-22T15:40:55.187Z,89.30
2019-03-22T15:43:24.678Z,88.70
2019-03-22T15:45:54.451Z,90.20
2019-03-22T15:48:23.871Z,90.00
2019-03-22T15:50:53.447Z,90.80
2019-03-22T15:53:22.940Z,89.80
2019-03-22T15:55:52.625Z,90.20
2019-03-22T15:58:22.207Z,90.60
2019-03-22T16:00:51.825Z,90.60
2019-03-22T16:03:21.290Z,90.90
2019-03-22T16:05:51.932Z,90.80
2019-03-22T16:08:21.621Z,90.90
2019-03-22T16:10:51.180Z,91.60
2019-03-22T16:13:20.693Z,92.00
2019-03-22T16:15:50.238Z,91.90
2019-03-22T16:18:20.443Z,92.40
2019-03-22T16:20:56.113Z,91.60
2019-03-22T16:23:21.239Z,91.40
2019-03-22T16:25:53.965Z,91.40
2019-03-22T16:28:23.534Z,92.10
2019-03-22T16:30:52.999Z,92.90
2019-03-22T16:33:22.741Z,93.70
2019-03-22T16:35:59.239Z,92.90
2019-03-22T16:38:45.949Z,93.40
2019-03-22T16:41:15.409Z,93.70
2019-03-22T16:43:44.973Z,94.10
2019-03-22T16:46:14.597Z,93.60
2019-03-22T16:48:44.189Z,94.80
2019-03-22T16:51:13.761Z,94.50
2019-03-22T16:53:46.645Z,95.20
2019-03-22T16:56:17.205Z,95.50
2019-03-22T16:58:46.769Z,95.70
2019-03-22T17:01:16.458Z,95.60
2019-03-22T17:03:46.088Z,96.00
2019-03-22T17:06:15.677Z,95.90
2019-03-22T17:08:45.212Z,96.50
2019-03-22T17:11:14.720Z,96.40
2019-03-22T17:13:44.253Z,97.20
2019-03-22T17:16:13.826Z,96.70
2019-03-22T17:18:46.322Z,96.90
2019-03-22T17:21:15.793Z,97.60
2019-03-22T17:23:45.353Z,98.00
2019-03-22T17:26:14.921Z,97.80
2019-03-22T17:28:44.389Z,98.20
2019-03-22T17:31:25.330Z,98.40
2019-03-22T17:33:54.994Z,99.10
2019-03-22T17:36:25.622Z,99.10
2019-03-22T17:38:58.180Z,99.90
2019-03-22T17:41:27.844Z,99.90
2019-03-22T17:43:57.337Z,99.90
2019-03-22T17:46:26.930Z,99.90
2019-03-22T17:48:56.546Z,99.90
2019-03-22T17:51:27.647Z,99.90
2019-03-22T17:54:00.220Z,99.90
2019-03-22T17:56:29.930Z,99.90
2019-03-22T17:58:59.573Z,99.90
2019-03-22T18:01:29.128Z,99.90
2019-03-22T18:04:00.845Z,99.90
2019-03-22T18:06:29.987Z,99.90
2019-03-22T18:08:59.487Z,99.90
2019-03-22T18:11:31.834Z,99.90
2019-03-22T18:14:02.539Z,99.90
2019-03-22T18:16:32.106Z,99.90
2019-03-22T18:19:04.554Z,99.90
2019-03-22T18:21:34.145Z,99.90
2019-03-22T18:24:03.834Z,99.90
2019-03-22T18:26:33.374Z,99.90
2019-03-22T18:29:02.967Z,99.90
2019-03-22T18:31:32.543Z,99.90
2019-03-22T18:34:02.030Z,99.90
2019-03-22T18:36:31.570Z,99.90
2019-03-22T18:39:01.420Z,99.90
2019-03-22T18:41:31.092Z,99.90
2019-03-22T18:44:00.624Z,99.90
2019-03-22T18:46:30.100Z,99.90
2019-03-22T18:48:59.866Z,99.90
2019-03-22T18:51:29.414Z,99.90
2019-03-22T18:53:59.029Z,99.90
2019-03-22T18:56:28.559Z,99.90
2019-03-22T18:58:57.999Z,99.90
2019-03-22T19:01:27.622Z,99.90
2019-03-22T19:03:57.142Z,99.90
2019-03-22T19:06:26.729Z,99.90
2019-03-22T19:08:56.291Z,99.90
2019-03-22T19:11:25.850Z,99.90
2019-03-22T19:14:00.323Z,99.90
2019-03-22T19:16:29.722Z,99.90
2019-03-22T19:19:00.883Z,99.90
2019-03-22T19:21:30.442Z,99.90
2019-03-22T19:23:59.953Z,99.90
2019-03-22T19:28:49.548Z,99.90
2019-03-22T19:31:20.093Z,99.90
2019-03-22T19:33:49.677Z,99.90
2019-03-22T19:36:19.452Z,99.90
2019-03-22T19:38:48.967Z,99.90
2019-03-22T19:41:18.464Z,99.90
2019-03-22T19:43:48.270Z,99.90
2019-03-22T19:46:17.781Z,99.90
2019-03-22T19:48:47.311Z,99.90
2019-03-22T19:51:16.860Z,99.90
2019-03-22T19:53:46.372Z,99.90
2019-03-22T19:56:15.947Z,99.90
2019-03-22T19:58:45.436Z,99.90
2019-03-22T20:01:16.485Z,99.90
2019-03-22T20:03:47.016Z,99.90
2019-03-22T20:06:16.533Z,99.90
2019-03-22T20:08:48.474Z,99.90
2019-03-22T20:11:18.091Z,99.90
2019-03-22T20:13:47.715Z,99.90
2019-03-22T20:16:17.317Z,99.90
2019-03-22T20:18:46.994Z,99.90
2019-03-22T20:21:16.668Z,99.90
2019-03-22T20:23:53.503Z,99.90
2019-03-22T20:26:17.374Z,99.90
2019-03-22T20:28:46.898Z,99.90
2019-03-22T20:31:16.450Z,99.90
2019-03-22T20:33:46.076Z,99.90
2019-03-22T20:36:15.638Z,99.90
2019-03-22T20:38:45.277Z,99.90
2019-03-22T20:41:15.966Z,99.90
2019-03-22T20:43:45.482Z,99.90
2019-03-22T20:46:15.182Z,99.90
2019-03-22T20:48:44.683Z,99.90
2019-03-22T20:51:14.087Z,99.90
2019-03-22T20:53:43.559Z,99.90
2019-03-22T20:56:13.200Z,99.90
2019-03-22T20:58:42.764Z,99.90
2019-03-22T21:01:12.393Z,99.90
2019-03-22T21:03:42.194Z,99.90
2019-03-22T21:06:11.642Z,99.90
2019-03-22T21:08:41.303Z,99.90
2019-03-22T21:11:11.002Z,99.90
2019-03-22T21:13:40.836Z,99.90
2019-03-22T21:16:10.615Z,99.90
2019-03-22T21:18:40.422Z,99.90
2019-03-22T21:21:10.042Z,99.90
2019-03-22T21:23:39.554Z,99.90
2019-03-22T21:26:09.187Z,99.90
2019-03-22T21:28:38.660Z,99.90
2019-03-22T21:31:08.406Z,99.90
2019-03-22T21:33:37.942Z,99.90
2019-03-22T21:36:07.570Z,99.90
2019-03-22T21:38:37.105Z,99.90
2019-03-22T21:41:06.679Z,99.90
2019-03-22T21:43:36.185Z,99.90
2019-03-22T21:46:05.713Z,99.90
2019-03-22T21:48:35.290Z,99.90
2019-03-22T21:51:04.956Z,99.90
2019-03-22T21:53:34.369Z,99.90
2019-03-22T21:56:04.026Z,99.90
2019-03-22T21:58:33.493Z,99.90
2019-03-22T22:01:03.137Z,99.90
2019-03-22T22:03:32.666Z,99.90
2019-03-22T22:06:02.245Z,99.90
2019-03-22T22:08:31.681Z,99.90
2019-03-22T22:11:01.191Z,99.90
2019-03-22T22:13:30.832Z,99.90
2019-03-22T22:16:00.407Z,99.90
2019-03-22T22:18:30.086Z,99.90
2019-03-22T22:20:59.619Z,99.90
2019-03-22T22:23:29.208Z,99.90
2019-03-22T22:25:58.892Z,99.90
2019-03-22T22:28:28.381Z,99.90
2019-03-22T22:30:57.839Z,99.90
2019-03-22T22:33:27.270Z,99.90
2019-03-22T22:35:58.893Z,99.90
2019-03-22T22:38:28.086Z,99.90
2019-03-22T22:40:57.668Z,99.90
2019-03-22T22:43:27.191Z,99.90
2019-03-22T22:45:56.730Z,99.90
2019-03-22T22:48:26.381Z,99.90
2019-03-22T22:50:55.998Z,99.90
2019-03-22T22:53:25.494Z,99.90
2019-03-22T22:55:54.964Z,99.90
2019-03-22T22:58:24.523Z,99.90
2019-03-22T23:00:54.118Z,99.90
2019-03-22T23:03:23.623Z,99.90
2019-03-22T23:05:53.228Z,99.90
2019-03-22T23:08:22.742Z,99.90
2019-03-22T23:10:52.292Z,99.90
2019-03-22T23:13:21.797Z,99.90
2019-03-22T23:15:51.378Z,99.90
2019-03-22T23:18:20.869Z,99.90
2019-03-22T23:20:50.327Z,99.90
2019-03-22T23:23:19.793Z,99.90
2019-03-22T23:25:49.231Z,99.90
2019-03-22T23:28:18.723Z,99.90
2019-03-22T23:30:48.234Z,99.90
2019-03-22T23:33:17.782Z,99.90
2019-03-22T23:35:47.339Z,99.90
2019-03-22T23:38:16.898Z,99.90
2019-03-22T23:40:46.429Z,99.90
2019-03-22T23:43:15.933Z,99.90
2019-03-22T23:45:45.433Z,99.90
2019-03-22T23:48:14.922Z,99.90
2019-03-22T23:50:44.500Z,99.90
2019-03-22T23:53:14.057Z,99.90
2019-03-22T23:55:43.479Z,99.90
2019-03-22T23:58:16.722Z,99.90
